Valley Falls, KS

4:07 AM CDT on August 26, 2016 (GMT -0500)
Lakeridge | | Change Station
Active Advisory: Flash Flood Watch

Elev 1023 ft 39.16 °N, 95.48 °W | Updated 1 second ago

Light Thunderstorms and Rain
Light Thunderstorm Rain
67.6 °F
Feels Like 67.6 °F
N
1.6
Wind Variable Wind from South
Gusts 3.1 mph

Today
High -- | Low -- °F
--% Chance of Precip.
Yesterday
High -- | Low -- °F
Precip. -- in
Pressure 30.09 in
Visibility 7.0 miles
Clouds Few 600 ft
Mostly Cloudy 900 ft
Overcast 2700 ft
Dew Point 63 °F
Humidity 85%
Rainfall 0.15 in
Snow Depth Not available.
6:45 AM 8:00 PM
Last Quarter, 36% visible
SPECI KTOP 260904Z AUTO 27003KT 7SM -TSRA FEW006 BKN009 OVC027 19/19 A3009 RMK AO2 LTG DSNT ALQDS P0000 T01940189 $
Pressure 30.09 in
Visibility 7.0 miles
Clouds Few 600 ft
Mostly Cloudy 900 ft
Overcast 2700 ft
Dew Point 63 °F
Humidity 85%
Rainfall 0.15 in
Snow Depth Not available.
6:45 AM 8:00 PM
Last Quarter, 36% visible
SPECI KTOP 260904Z AUTO 27003KT 7SM -TSRA FEW006 BKN009 OVC027 19/19 A3009 RMK AO2 LTG DSNT ALQDS P0000 T01940189 $

10-Day Weather Forecast

Almanac

Astronomy

Aug. 26, 2016 Rise Set
Actual Time
Civil Twilight
Nautical Twilight
Astronomical Twilight
Moon
Length of Visible Light
Length of Day
Tomorrow will be .
, % of the Moon is Illuminated

Today's Extremes

State Highs State Lows

Community

WunderPhotos

Upload Photos

1,935,062 photos uploaded!

WunderBlog® & News

Nearby

Air Quality

  Air Quality AQ Index Pollutant
Not available.

Snow Depth

Station Depth Elevation

Earthquake Activity

City Distance Mag. Time & Date
Minimum magnitude displayed is 2.5.

Coastal Water Temperatures

Place Temperature

Stations

Nearby Weather Stations

Station Location Temp. Windchill Dew Point Humidity Wind Precip. Elev Updated Type
                   

Watches & Warnings

Flash Flood Watch
Issued: 10:14 PM CDT Aug. 25, 2016 – National Weather Service

... Flash Flood Watch remains in effect until 7 am CDT Friday...

The Flash Flood Watch continues for

* portions of east central Kansas and northeast Kansas...
including the following areas... in east central Kansas...
Anderson... Coffey... Douglas... Franklin... Lyon... Morris...
Osage... Shawnee and Wabaunsee. In northeast Kansas...
Jefferson.

* Until 7 am CDT Friday

* scattered thunderstorms are expected tonight across east central
Kansas... extending into Friday morning. Some of these locations
already received 1 to 2 inches of rain Wednesday night and the
ground is nearly saturated. An additional 1 to 2 inches of
rainfall will be possible tonight... especially after midnight.
This additional rain could result in flash flooding.

Precautionary/preparedness actions...

A Flash Flood Watch means that conditions may develop that lead
to flash flooding. Flash flooding is a very dangerous situation.

You should monitor later forecasts and be prepared to take action
should flash flood warnings be issued.